Time;durP1;ratioP1;P1;durP2;ratioP2;P2;SDS_P1;SDS_P2;PMS_P1;PMS_P2;Temp;Humidity;BMP_temperature;BMP_pressure;BME280_temperature;BME280_humidity;BME280_pressure;Samples;Min_cycle;Max_cycle;Signal;HPM_P1;HPM_P2
2021/06/19 00:00:06;;;;;;;2.50;1.70;;;24.40;98.00;;;;;;5087174;28;20456;-74
2021/06/19 00:02:33;;;;;;;2.00;1.60;;;24.30;98.00;;;;;;5090589;28;20479;-74
2021/06/19 00:05:00;;;;;;;1.77;1.60;;;24.20;98.00;;;;;;5088531;28;20454;-74
2021/06/19 00:07:27;;;;;;;3.10;2.20;;;24.00;98.00;;;;;;5090653;28;20524;-73
2021/06/19 00:09:56;;;;;;;2.33;1.80;;;24.00;98.00;;;;;;5090528;28;20451;-73
2021/06/19 00:12:23;;;;;;;1.67;1.60;;;23.90;98.00;;;;;;5088648;28;20463;-73
2021/06/19 00:14:51;;;;;;;2.30;2.10;;;23.80;98.00;;;;;;5089212;28;20885;-73
2021/06/19 00:17:19;;;;;;;2.33;2.20;;;23.80;98.00;;;;;;5090484;28;20483;-74
2021/06/19 00:19:45;;;;;;;2.20;1.90;;;23.80;98.00;;;;;;5094195;28;20867;-73
2021/06/19 00:22:12;;;;;;;2.30;1.57;;;23.70;98.00;;;;;;5092412;28;20554;-72
2021/06/19 00:24:41;;;;;;;2.73;1.83;;;23.70;98.00;;;;;;5094150;28;20483;-74
2021/06/19 00:27:09;;;;;;;2.60;1.70;;;23.60;98.00;;;;;;5091896;28;20487;-73
2021/06/19 00:29:38;;;;;;;2.10;1.70;;;23.70;98.00;;;;;;5093924;28;20494;-72
2021/06/19 00:32:06;;;;;;;3.10;1.83;;;23.80;98.00;;;;;;5092014;28;20448;-74
2021/06/19 00:34:33;;;;;;;2.60;2.03;;;23.80;98.00;;;;;;5094090;28;20535;-73
2021/06/19 00:37:00;;;;;;;2.10;1.57;;;23.70;98.00;;;;;;5091594;28;21202;-74
2021/06/19 00:39:28;;;;;;;2.17;1.80;;;23.60;98.00;;;;;;5093669;28;20509;-73
2021/06/19 00:41:55;;;;;;;1.50;1.43;;;23.70;98.00;;;;;;5091722;28;20456;-73
2021/06/19 00:44:23;;;;;;;1.67;1.57;;;23.70;98.00;;;;;;5092265;28;21027;-73
2021/06/19 00:46:51;;;;;;;1.50;1.40;;;23.60;98.00;;;;;;5091568;28;20444;-74
2021/06/19 00:49:18;;;;;;;2.90;1.57;;;23.50;98.00;;;;;;5093557;28;20465;-73
2021/06/19 00:51:45;;;;;;;6.03;1.70;;;23.60;98.00;;;;;;5091565;28;20448;-73
2021/06/19 00:54:13;;;;;;;2.90;1.70;;;23.80;95.00;;;;;;5093355;28;20508;-73
2021/06/19 00:56:41;;;;;;;2.30;2.10;;;23.90;95.90;;;;;;5091592;28;20479;-73
2021/06/19 00:59:09;;;;;;;1.80;1.30;;;23.90;95.80;;;;;;5093365;28;20495;-73
2021/06/19 01:01:38;;;;;;;3.30;1.73;;;24.00;94.60;;;;;;5091129;28;21021;-72
2021/06/19 01:04:07;;;;;;;1.90;1.70;;;24.10;94.30;;;;;;5092096;28;20497;-73
2021/06/19 01:06:35;;;;;;;2.50;1.43;;;24.10;94.10;;;;;;5091741;28;20987;-73
2021/06/19 01:09:03;;;;;;;2.07;1.80;;;24.10;93.90;;;;;;5093083;28;20456;-72
2021/06/19 01:11:31;;;;;;;1.90;1.77;;;24.20;93.90;;;;;;5091093;28;20463;-73
2021/06/19 01:13:58;;;;;;;4.20;1.93;;;24.20;94.20;;;;;;5093038;28;20505;-73
2021/06/19 01:16:26;;;;;;;1.87;1.40;;;24.20;94.20;;;;;;5091307;28;20850;-73
2021/06/19 01:18:54;;;;;;;2.87;1.77;;;24.20;94.70;;;;;;5093198;28;21003;-74
2021/06/19 01:21:24;;;;;;;2.43;1.77;;;24.10;94.80;;;;;;5091051;28;20459;-73
2021/06/19 01:23:52;;;;;;;1.70;1.40;;;24.10;95.30;;;;;;5093086;28;20491;-74
2021/06/19 01:26:22;;;;;;;7.40;1.80;;;24.10;95.50;;;;;;5091107;28;20597;-73
2021/06/19 01:28:51;;;;;;;1.63;1.50;;;24.20;95.90;;;;;;5092421;28;20521;-73
2021/06/19 01:31:19;;;;;;;1.43;1.43;;;24.20;96.70;;;;;;5090659;28;20880;-74
2021/06/19 01:33:47;;;;;;;7.00;1.73;;;24.20;96.70;;;;;;5092783;28;20452;-73
2021/06/19 01:36:16;;;;;;;6.40;1.40;;;24.20;97.40;;;;;;5090690;28;20459;-73
2021/06/19 01:38:44;;;;;;;3.00;2.00;;;24.00;98.00;;;;;;5092625;28;20480;-74
2021/06/19 01:41:15;;;;;;;1.80;1.43;;;23.90;98.00;;;;;;5090307;28;20552;-73
2021/06/19 01:43:44;;;;;;;1.90;1.60;;;23.80;98.00;;;;;;5092502;28;20776;-74
2021/06/19 01:46:12;;;;;;;2.70;1.67;;;23.60;98.00;;;;;;5090456;28;20467;-74
2021/06/19 01:48:39;;;;;;;2.87;2.03;;;23.60;98.00;;;;;;5092429;28;21021;-74
2021/06/19 01:51:08;;;;;;;1.80;1.43;;;23.60;98.00;;;;;;5090432;28;20460;-74
2021/06/19 01:53:37;;;;;;;3.00;1.73;;;23.60;98.00;;;;;;5092316;28;20452;-74
2021/06/19 01:56:05;;;;;;;3.00;1.70;;;23.40;98.00;;;;;;5090179;28;20513;-73
2021/06/19 01:58:32;;;;;;;5.20;1.70;;;23.40;98.00;;;;;;5092160;28;20515;-74
2021/06/19 02:01:00;;;;;;;2.20;1.43;;;23.40;98.00;;;;;;5090209;28;20487;-74
2021/06/19 02:03:27;;;;;;;2.57;1.90;;;23.30;98.00;;;;;;5092162;28;20459;-74
2021/06/19 02:05:54;;;;;;;2.17;1.70;;;23.30;98.00;;;;;;5090163;28;20465;-75
2021/06/19 02:08:21;;;;;;;1.90;1.60;;;23.10;98.00;;;;;;5091940;28;20456;-74
2021/06/19 02:10:51;;;;;;;1.60;1.40;;;23.10;98.00;;;;;;5089834;28;20479;-74
2021/06/19 02:13:19;;;;;;;2.50;2.20;;;23.00;98.00;;;;;;5090569;28;20533;-74
2021/06/19 02:15:48;;;;;;;2.30;1.50;;;22.90;98.00;;;;;;5089894;28;20464;-73
2021/06/19 02:18:17;;;;;;;2.13;1.60;;;22.80;98.00;;;;;;5091556;28;20479;-74
2021/06/19 02:20:51;;;;;;;2.10;1.67;;;22.70;98.00;;;;;;5089926;28;20455;-74
2021/06/19 02:23:18;;;;;;;1.30;1.30;;;22.60;98.00;;;;;;5090237;28;20463;-74
2021/06/19 02:25:51;;;;;;;1.80;1.50;;;22.50;98.00;;;;;;5089752;28;20574;-73
2021/06/19 02:28:20;;;;;;;2.13;2.03;;;22.50;98.00;;;;;;5090772;28;20559;-74
2021/06/19 02:30:49;;;;;;;4.60;1.93;;;22.50;98.00;;;;;;5089493;28;20861;-74
2021/06/19 02:33:18;;;;;;;2.03;1.30;;;22.40;98.00;;;;;;5091363;28;20452;-73
2021/06/19 02:35:47;;;;;;;1.90;1.80;;;22.30;98.00;;;;;;5089925;28;20463;-74
2021/06/19 02:38:15;;;;;;;1.93;1.80;;;22.40;98.00;;;;;;5091650;28;20480;-74
2021/06/19 02:40:42;;;;;;;2.30;1.50;;;22.30;98.00;;;;;;5088797;28;20460;-74
2021/06/19 02:43:11;;;;;;;1.80;1.60;;;22.10;98.00;;;;;;5091517;28;20451;-74
2021/06/19 02:45:38;;;;;;;1.80;1.43;;;22.10;98.00;;;;;;5089581;28;20946;-74
2021/06/19 02:48:07;;;;;;;1.70;1.37;;;22.00;98.00;;;;;;5091488;28;20934;-73
2021/06/19 02:50:38;;;;;;;1.97;1.40;;;22.00;98.00;;;;;;5089977;28;20516;-73
2021/06/19 02:53:06;;;;;;;2.13;1.60;;;22.00;98.00;;;;;;5092580;28;20501;-74
2021/06/19 02:55:35;;;;;;;1.40;1.30;;;22.10;98.00;;;;;;5089654;28;20521;-73
2021/06/19 02:58:02;;;;;;;2.20;1.57;;;22.10;98.00;;;;;;5091928;28;20517;-73
2021/06/19 03:00:29;;;;;;;1.73;1.40;;;22.30;98.00;;;;;;5090346;28;20492;-74
2021/06/19 03:02:57;;;;;;;1.73;1.40;;;22.20;98.00;;;;;;5092164;28;20895;-74
2021/06/19 03:05:26;;;;;;;1.63;1.47;;;22.10;98.00;;;;;;5088909;28;20456;-74
2021/06/19 03:07:55;;;;;;;2.13;1.53;;;22.10;98.00;;;;;;5091340;28;20456;-73
2021/06/19 03:10:24;;;;;;;1.50;1.37;;;21.90;98.00;;;;;;5088948;28;20463;-74
2021/06/19 03:12:51;;;;;;;1.60;1.47;;;22.00;98.00;;;;;;5091113;28;20516;-74
2021/06/19 03:15:18;;;;;;;1.47;1.40;;;22.00;98.00;;;;;;5089705;28;20942;-74
2021/06/19 03:17:45;;;;;;;2.43;1.40;;;21.90;98.00;;;;;;5090786;28;20533;-73
2021/06/19 03:20:14;;;;;;;1.47;1.37;;;21.70;98.00;;;;;;5090968;28;20590;-74
2021/06/19 03:22:43;;;;;;;1.50;1.20;;;21.70;98.00;;;;;;5088680;28;20452;-74
2021/06/19 03:25:15;;;;;;;1.30;1.23;;;21.60;98.00;;;;;;5090866;28;20945;-75
2021/06/19 03:27:42;;;;;;;6.13;1.63;;;21.70;98.00;;;;;;5089507;28;20977;-74
2021/06/19 03:30:11;;;;;;;1.87;1.80;;;21.70;98.00;;;;;;5090767;28;20530;-73
2021/06/19 03:32:38;;;;;;;3.40;1.57;;;21.60;98.00;;;;;;5088515;28;20455;-75
2021/06/19 03:35:07;;;;;;;1.77;1.60;;;21.60;98.00;;;;;;5090842;28;20456;-74
2021/06/19 03:37:34;;;;;;;3.30;1.50;;;21.60;98.00;;;;;;5088759;28;20541;-74
2021/06/19 03:40:02;;;;;;;1.60;1.20;;;21.60;98.00;;;;;;5090894;28;20513;-74
2021/06/19 03:42:30;;;;;;;2.57;2.03;;;21.60;98.00;;;;;;5088374;28;20517;-74
2021/06/19 03:44:57;;;;;;;2.90;1.90;;;21.60;98.00;;;;;;5090700;28;20452;-74
2021/06/19 03:47:24;;;;;;;1.40;1.30;;;21.70;98.00;;;;;;5088427;28;20447;-74
2021/06/19 03:49:51;;;;;;;1.97;1.20;;;21.60;98.00;;;;;;5090654;28;20455;-75
2021/06/19 03:52:18;;;;;;;1.40;1.30;;;21.60;98.00;;;;;;5092473;28;20547;-74
2021/06/19 03:54:45;;;;;;;1.87;1.30;;;21.60;98.00;;;;;;5094606;28;20452;-74
2021/06/19 03:57:23;;;;;;;2.47;1.67;;;21.70;98.00;;;;;;5091234;28;20509;-75
2021/06/19 03:59:52;;;;;;;1.30;1.30;;;21.90;98.00;;;;;;5094626;28;20452;-74
2021/06/19 04:02:19;;;;;;;2.00;1.63;;;21.90;98.00;;;;;;5092551;28;20447;-74
2021/06/19 04:04:46;;;;;;;1.63;1.50;;;21.70;98.00;;;;;;5094514;28;20459;-74
2021/06/19 04:07:14;;;;;;;4.23;1.63;;;21.70;98.00;;;;;;5092230;28;20484;-74
2021/06/19 04:09:41;;;;;;;1.93;1.30;;;21.70;98.00;;;;;;5094218;28;20509;-74
2021/06/19 04:12:09;;;;;;;1.30;1.20;;;21.90;98.00;;;;;;5092395;28;20512;-75
2021/06/19 04:14:36;;;;;;;1.97;1.47;;;21.90;98.00;;;;;;5094243;28;20521;-74
2021/06/19 04:17:05;;;;;;;1.67;1.60;;;21.80;98.00;;;;;;5092207;28;20456;-74
2021/06/19 04:19:32;;;;;;;2.37;1.80;;;21.60;98.00;;;;;;5094268;28;20517;-74
2021/06/19 04:21:59;;;;;;;1.47;1.23;;;21.50;98.00;;;;;;5091203;28;20516;-74
2021/06/19 04:24:26;;;;;;;1.87;1.83;;;21.50;98.00;;;;;;5094072;28;20444;-74
2021/06/19 04:26:52;;;;;;;1.47;1.27;;;21.50;98.00;;;;;;5092226;28;20455;-74
2021/06/19 04:29:19;;;;;;;1.53;1.50;;;21.60;98.00;;;;;;5093932;28;20508;-74
2021/06/19 04:31:46;;;;;;;1.70;1.60;;;21.70;98.00;;;;;;5092057;28;20456;-74
2021/06/19 04:34:15;;;;;;;1.70;1.33;;;21.70;98.00;;;;;;5092716;28;20466;-74
2021/06/19 04:36:42;;;;;;;1.73;1.43;;;21.90;98.00;;;;;;5091964;28;20494;-75
2021/06/19 04:39:09;;;;;;;2.50;1.70;;;22.00;98.00;;;;;;5092475;28;20515;-74
2021/06/19 04:41:46;;;;;;;2.60;1.60;;;22.10;98.00;;;;;;5091758;28;20493;-75
2021/06/19 04:44:27;;;;;;;2.57;1.47;;;22.10;98.00;;;;;;5092598;28;20917;-75
2021/06/19 04:46:54;;;;;;;2.23;1.43;;;22.20;98.00;;;;;;5090513;28;20463;-74
2021/06/19 04:49:23;;;;;;;1.57;1.30;;;22.10;98.00;;;;;;5093411;28;20509;-74
2021/06/19 04:51:50;;;;;;;1.37;1.27;;;22.00;98.00;;;;;;5091518;28;20444;-74
2021/06/19 04:54:17;;;;;;;3.17;1.90;;;22.00;98.00;;;;;;5093597;28;20521;-74
2021/06/19 04:56:44;;;;;;;2.13;2.00;;;22.00;98.00;;;;;;5091360;28;20542;-74
2021/06/19 04:59:11;;;;;;;1.40;1.37;;;22.10;98.00;;;;;;5093065;28;20483;-75
2021/06/19 05:01:39;;;;;;;1.97;1.40;;;22.10;98.00;;;;;;5091071;28;20527;-74
2021/06/19 05:04:06;;;;;;;1.83;1.47;;;22.20;98.00;;;;;;5092899;28;20484;-74
2021/06/19 05:06:36;;;;;;;1.60;1.50;;;22.20;98.00;;;;;;5091049;28;20464;-74
2021/06/19 05:09:04;;;;;;;1.70;1.40;;;22.20;98.00;;;;;;5093094;28;20452;-74
2021/06/19 05:11:34;;;;;;;3.50;1.20;;;22.20;98.00;;;;;;5091017;28;20483;-73
2021/06/19 05:14:01;;;;;;;1.73;1.40;;;22.30;98.00;;;;;;5093213;28;20456;-73
2021/06/19 05:16:28;;;;;;;1.30;1.20;;;22.20;98.00;;;;;;5089597;28;20487;-74
2021/06/19 05:18:55;;;;;;;1.40;1.30;;;22.30;98.00;;;;;;5091655;28;20475;-73
2021/06/19 05:21:22;;;;;;;2.10;1.43;;;22.20;98.00;;;;;;5090978;28;20813;-73
2021/06/19 05:23:51;;;;;;;1.90;1.43;;;22.20;98.00;;;;;;5092906;28;20594;-73
2021/06/19 05:26:18;;;;;;;1.80;1.43;;;22.20;98.00;;;;;;5090377;28;20502;-73
2021/06/19 05:28:45;;;;;;;1.60;1.50;;;22.10;98.00;;;;;;5091625;28;20498;-73
2021/06/19 05:31:12;;;;;;;1.60;1.50;;;22.20;98.00;;;;;;5090715;28;20526;-73
2021/06/19 05:33:39;;;;;;;1.67;1.63;;;22.20;98.00;;;;;;5092891;28;20471;-73
2021/06/19 05:36:06;;;;;;;1.60;1.40;;;22.30;98.00;;;;;;5090785;28;20741;-73
2021/06/19 05:38:33;;;;;;;1.60;1.37;;;22.40;98.00;;;;;;5092600;28;20515;-73
2021/06/19 05:41:02;;;;;;;2.60;1.60;;;22.30;98.00;;;;;;5090586;28;20513;-74
2021/06/19 05:43:29;;;;;;;1.77;1.60;;;22.40;98.00;;;;;;5092919;28;20456;-73
2021/06/19 05:45:57;;;;;;;2.03;1.57;;;22.50;98.00;;;;;;5090829;28;20495;-73
2021/06/19 05:48:24;;;;;;;1.93;1.70;;;22.60;98.00;;;;;;5092384;28;20455;-73
2021/06/19 05:50:51;;;;;;;2.40;1.73;;;22.60;98.00;;;;;;5090879;28;20460;-73
2021/06/19 05:53:18;;;;;;;10.90;1.90;;;22.70;98.00;;;;;;5092229;28;20513;-73
2021/06/19 05:55:45;;;;;;;1.50;1.40;;;22.80;98.00;;;;;;5090283;28;20456;-74
2021/06/19 05:58:13;;;;;;;1.90;1.70;;;22.80;98.00;;;;;;5092292;28;20479;-73
2021/06/19 06:00:40;;;;;;;1.83;1.70;;;22.80;98.00;;;;;;5090266;28;20807;-73
2021/06/19 06:03:07;;;;;;;1.57;1.53;;;23.00;98.00;;;;;;5092109;28;20464;-73
2021/06/19 06:05:34;;;;;;;3.53;1.67;;;23.00;98.00;;;;;;5089956;28;20509;-74
2021/06/19 06:08:02;;;;;;;1.90;1.60;;;23.10;98.00;;;;;;5090747;28;20454;-74
2021/06/19 06:10:30;;;;;;;2.70;1.80;;;23.20;98.00;;;;;;5091962;28;20891;-73
2021/06/19 06:12:57;;;;;;;2.87;2.40;;;23.10;98.00;;;;;;5089922;28;20495;-73
2021/06/19 06:15:26;;;;;;;2.07;1.57;;;23.10;98.00;;;;;;5090889;28;20585;-73
2021/06/19 06:17:53;;;;;;;2.47;1.53;;;23.00;98.00;;;;;;5089731;28;20528;-72
2021/06/19 06:20:20;;;;;;;1.57;1.40;;;23.00;98.00;;;;;;5091672;28;20448;-73
2021/06/19 06:22:47;;;;;;;1.83;1.53;;;23.10;98.00;;;;;;5089594;28;20452;-73
2021/06/19 06:25:15;;;;;;;2.73;1.83;;;23.00;98.00;;;;;;5091719;28;20459;-73
2021/06/19 06:27:41;;;;;;;2.80;1.47;;;22.90;98.00;;;;;;5089302;28;20517;-72
2021/06/19 06:30:10;;;;;;;1.93;1.67;;;22.90;98.00;;;;;;5091587;28;20487;-72
2021/06/19 06:32:38;;;;;;;1.90;1.50;;;23.00;98.00;;;;;;5089327;28;20494;-72
2021/06/19 06:35:07;;;;;;;2.80;1.63;;;23.20;98.00;;;;;;5091462;28;20513;-72
2021/06/19 06:37:34;;;;;;;1.70;1.60;;;23.50;98.00;;;;;;5087837;28;20452;-71
2021/06/19 06:40:01;;;;;;;3.50;1.93;;;24.00;98.00;;;;;;5091448;28;20548;-71
2021/06/19 06:42:28;;;;;;;2.30;2.00;;;24.30;98.00;;;;;;5089336;28;20495;-72
2021/06/19 06:44:55;;;;;;;2.20;1.53;;;24.30;98.00;;;;;;5091252;28;20795;-72
2021/06/19 06:47:22;;;;;;;2.13;1.63;;;24.30;98.00;;;;;;5089134;28;20581;-73
2021/06/19 06:49:50;;;;;;;2.43;1.70;;;24.30;98.00;;;;;;5091474;28;20452;-74
2021/06/19 06:52:17;;;;;;;5.20;2.00;;;24.50;98.00;;;;;;5089279;28;20443;-73
2021/06/19 06:54:44;;;;;;;1.80;1.57;;;24.60;98.00;;;;;;5091189;28;20448;-73
2021/06/19 06:57:11;;;;;;;2.77;1.80;;;24.70;98.00;;;;;;5089233;28;20460;-73
2021/06/19 06:59:39;;;;;;;2.80;1.80;;;24.90;98.00;;;;;;5091096;28;20515;-74
2021/06/19 07:02:06;;;;;;;3.57;2.20;;;24.80;98.00;;;;;;5089110;28;20459;-73
2021/06/19 07:04:33;;;;;;;1.50;1.40;;;25.00;98.00;;;;;;5091433;28;20824;-74
2021/06/19 07:07:01;;;;;;;3.90;2.00;;;25.00;98.00;;;;;;5089081;28;20513;-74
2021/06/19 07:09:28;;;;;;;1.50;1.33;;;25.10;98.00;;;;;;5091159;28;20521;-75
2021/06/19 07:11:55;;;;;;;2.80;2.10;;;25.30;98.00;;;;;;5089216;28;20456;-74
2021/06/19 07:14:22;;;;;;;2.23;1.73;;;25.50;98.00;;;;;;5090994;28;20460;-74
2021/06/19 07:16:49;;;;;;;2.90;1.77;;;25.70;98.00;;;;;;5087744;28;20533;-74
2021/06/19 07:19:17;;;;;;;2.13;1.63;;;25.80;98.00;;;;;;5090905;28;20513;-73
2021/06/19 07:21:44;;;;;;;1.60;1.53;;;25.70;98.00;;;;;;5088948;28;20480;-74
2021/06/19 07:24:12;;;;;;;1.83;1.63;;;25.70;98.00;;;;;;5090968;28;20810;-73
2021/06/19 07:26:39;;;;;;;1.90;1.50;;;25.80;98.00;;;;;;5088359;28;20542;-74
2021/06/19 07:29:06;;;;;;;4.43;2.00;;;25.80;98.00;;;;;;5090703;28;20529;-74
2021/06/19 07:31:33;;;;;;;2.03;1.70;;;26.00;98.00;;;;;;5088213;28;20692;-73
2021/06/19 07:34:00;;;;;;;1.40;1.40;;;25.90;98.00;;;;;;5090627;28;20456;-74
2021/06/19 07:36:27;;;;;;;2.20;1.97;;;26.00;98.00;;;;;;5088479;28;20443;-73
2021/06/19 07:38:54;;;;;;;1.67;1.60;;;26.10;98.00;;;;;;5090663;28;21052;-75
2021/06/19 07:41:23;;;;;;;2.90;2.03;;;26.30;98.00;;;;;;5088448;28;20493;-74
2021/06/19 07:43:50;;;;;;;4.33;2.80;;;26.30;98.00;;;;;;5087704;28;20487;-71
2021/06/19 07:46:18;;;;;;;2.80;2.00;;;26.40;98.00;;;;;;5087572;28;20452;-70
2021/06/19 07:48:45;;;;;;;3.10;2.07;;;26.40;97.40;;;;;;5089767;28;20478;-70
2021/06/19 07:51:12;;;;;;;6.07;2.00;;;26.40;97.60;;;;;;5087518;28;20452;-69
2021/06/19 07:53:39;;;;;;;1.90;1.73;;;26.50;96.60;;;;;;5089894;28;20509;-69
2021/06/19 07:56:06;;;;;;;4.10;2.17;;;26.50;95.50;;;;;;5086116;28;20484;-69
2021/06/19 07:58:34;;;;;;;4.33;1.90;;;26.50;96.70;;;;;;5088216;28;20484;-71
2021/06/19 08:01:01;;;;;;;2.23;1.77;;;26.60;96.90;;;;;;5086526;28;20548;-70
2021/06/19 08:03:28;;;;;;;2.90;2.07;;;26.70;96.30;;;;;;5089663;28;20511;-73
2021/06/19 08:05:56;;;;;;;2.60;2.10;;;26.80;95.10;;;;;;5087153;28;20540;-69
2021/06/19 08:08:23;;;;;;;1.77;1.60;;;26.80;94.80;;;;;;5089492;28;20459;-72
2021/06/19 08:10:51;;;;;;;2.97;2.30;;;26.90;96.10;;;;;;5087071;28;20456;-74
2021/06/19 08:13:18;;;;;;;3.03;2.17;;;27.00;94.50;;;;;;5089798;28;20815;-72
2021/06/19 08:15:47;;;;;;;2.47;1.90;;;27.10;95.30;;;;;;5089162;28;20455;-73
2021/06/19 08:18:14;;;;;;;2.97;1.80;;;27.20;94.60;;;;;;5089450;28;20474;-72
2021/06/19 08:20:41;;;;;;;2.63;1.97;;;27.30;95.00;;;;;;5089796;28;20510;-74
2021/06/19 08:23:08;;;;;;;2.90;2.17;;;27.50;93.50;;;;;;5087213;28;20452;-71
2021/06/19 08:25:35;;;;;;;2.30;2.07;;;27.70;91.90;;;;;;5090217;28;20521;-73
2021/06/19 08:28:03;;;;;;;2.27;1.97;;;27.70;92.30;;;;;;5087184;28;20499;-72
2021/06/19 08:30:30;;;;;;;1.90;1.70;;;27.80;92.20;;;;;;5089516;28;20479;-71
2021/06/19 08:32:59;;;;;;;1.60;1.60;;;27.90;91.20;;;;;;5087306;28;20463;-70
2021/06/19 08:35:26;;;;;;;2.23;1.70;;;27.90;90.60;;;;;;5089795;28;20459;-71
2021/06/19 08:37:54;;;;;;;2.90;2.27;;;27.80;89.30;;;;;;5078482;28;20868;-71
2021/06/19 08:40:21;;;;;;;2.83;1.90;;;27.80;91.00;;;;;;5072672;28;20477;-72
2021/06/19 08:42:48;;;;;;;3.03;2.20;;;27.80;90.80;;;;;;5070362;28;20457;-72
2021/06/19 08:45:15;;;;;;;1.90;1.67;;;27.90;93.00;;;;;;5072877;28;20449;-72
2021/06/19 08:47:44;;;;;;;2.03;1.93;;;28.00;92.00;;;;;;5070520;28;20472;-72
2021/06/19 08:50:14;;;;;;;1.63;1.60;;;28.10;91.40;;;;;;5072657;28;20526;-72
2021/06/19 08:52:43;;;;;;;3.40;2.03;;;28.20;91.90;;;;;;5070612;28;20457;-72
2021/06/19 08:55:14;;;;;;;2.30;1.87;;;28.30;90.10;;;;;;5072639;28;20490;-72
2021/06/19 08:57:41;;;;;;;2.03;1.80;;;28.40;90.20;;;;;;5070698;28;20448;-72
2021/06/19 09:00:10;;;;;;;3.00;2.00;;;28.50;89.50;;;;;;5073011;28;20476;-72
2021/06/19 09:02:38;;;;;;;3.80;2.10;;;28.40;90.50;;;;;;5070409;28;20510;-71
2021/06/19 09:05:08;;;;;;;2.83;1.87;;;28.30;88.50;;;;;;5072587;28;20464;-70
2021/06/19 09:07:38;;;;;;;2.03;1.90;;;28.20;89.50;;;;;;5070597;28;20484;-71
2021/06/19 09:10:22;;;;;;;1.50;1.40;;;28.30;90.20;;;;;;5072891;28;20491;-72
2021/06/19 09:13:14;;;;;;;2.37;1.83;;;28.40;91.10;;;;;;5070326;28;20487;-74
2021/06/19 09:15:44;;;;;;;2.80;1.70;;;28.50;89.70;;;;;;5057942;28;21030;-72
2021/06/19 09:18:17;;;;;;;1.57;1.50;;;28.60;90.80;;;;;;5070860;28;20495;-71
2021/06/19 09:20:52;;;;;;;2.10;1.77;;;28.80;90.00;;;;;;5071481;28;21022;-70
2021/06/19 09:23:28;;;;;;;2.10;1.77;;;29.00;89.10;;;;;;5071908;28;20456;-70
2021/06/19 09:26:13;;;;;;;1.93;1.80;;;29.10;87.50;;;;;;5070969;28;20468;-71
2021/06/19 09:29:04;;;;;;;3.53;2.40;;;29.20;89.00;;;;;;5072333;28;20518;-70
2021/06/19 09:31:40;;;;;;;2.20;1.87;;;29.30;88.50;;;;;;5070226;28;20453;-73
2021/06/19 09:34:09;;;;;;;2.10;1.67;;;29.50;87.20;;;;;;5072501;28;20517;-73
2021/06/19 09:36:51;;;;;;;2.40;1.93;;;29.60;86.80;;;;;;5070201;28;20460;-73
2021/06/19 09:39:21;;;;;;;2.67;2.03;;;29.70;87.60;;;;;;5072272;28;20568;-73
2021/06/19 09:41:51;;;;;;;1.87;1.77;;;29.80;86.40;;;;;;5070317;28;20492;-73
2021/06/19 09:44:33;;;;;;;2.17;2.03;;;29.80;86.20;;;;;;5072250;28;20469;-72
2021/06/19 09:47:00;;;;;;;2.60;1.57;;;29.90;85.30;;;;;;5070229;28;20878;-72
2021/06/19 09:49:32;;;;;;;3.03;1.90;;;30.10;86.70;;;;;;5071951;28;20453;-73
2021/06/19 09:51:59;;;;;;;3.40;1.80;;;30.20;85.90;;;;;;5069976;28;20488;-72
2021/06/19 09:54:28;;;;;;;1.83;1.80;;;30.30;84.70;;;;;;5072187;28;20524;-73
2021/06/19 09:56:57;;;;;;;2.73;1.93;;;30.50;84.70;;;;;;5069329;28;20945;-72
2021/06/19 09:59:29;;;;;;;2.40;2.20;;;30.50;84.90;;;;;;5071920;28;20480;-73
2021/06/19 10:01:58;;;;;;;2.27;1.97;;;30.60;83.60;;;;;;5068311;28;20455;-73
2021/06/19 10:04:26;;;;;;;1.93;1.63;;;30.70;84.50;;;;;;5071820;28;20790;-73
2021/06/19 10:06:55;;;;;;;3.00;2.30;;;30.90;84.80;;;;;;5069726;28;20491;-73
2021/06/19 10:09:25;;;;;;;1.80;1.80;;;30.90;82.70;;;;;;5071922;28;20457;-73
2021/06/19 10:11:54;;;;;;;2.43;1.80;;;31.00;85.10;;;;;;5069270;28;20493;-73
2021/06/19 10:14:24;;;;;;;2.90;2.20;;;31.10;85.40;;;;;;5071539;28;20491;-72
2021/06/19 10:16:54;;;;;;;1.90;1.67;;;31.20;83.60;;;;;;5067915;28;20453;-72
2021/06/19 10:19:22;;;;;;;4.10;2.57;;;31.30;85.10;;;;;;5071470;28;20477;-73
2021/06/19 10:21:51;;;;;;;3.20;1.80;;;31.40;84.80;;;;;;5069319;28;20492;-74
2021/06/19 10:24:20;;;;;;;2.40;1.83;;;31.50;82.00;;;;;;5071517;28;20472;-72
2021/06/19 10:26:47;;;;;;;2.20;2.00;;;31.40;82.10;;;;;;5068813;28;20544;-73
2021/06/19 10:29:16;;;;;;;2.20;1.90;;;31.50;83.90;;;;;;5071138;28;20813;-72
2021/06/19 10:31:46;;;;;;;2.73;2.20;;;31.50;81.80;;;;;;5068980;28;20457;-73
2021/06/19 10:34:22;;;;;;;1.93;1.87;;;31.60;82.70;;;;;;5070947;28;20867;-73
2021/06/19 10:36:49;;;;;;;2.50;1.80;;;31.80;83.80;;;;;;5069074;28;20934;-73
2021/06/19 10:39:32;;;;;;;2.07;1.80;;;32.00;82.30;;;;;;5071189;28;20456;-74
2021/06/19 10:42:00;;;;;;;2.33;1.90;;;32.20;80.50;;;;;;5069017;28;20472;-72
2021/06/19 10:44:51;;;;;;;2.10;1.80;;;32.30;79.00;;;;;;5071136;28;20526;-75
2021/06/19 10:47:19;;;;;;;3.27;2.23;;;32.20;77.30;;;;;;5068704;28;20516;-73
2021/06/19 10:49:47;;;;;;;2.40;1.77;;;32.30;78.00;;;;;;5071238;28;20510;-73
2021/06/19 10:52:34;;;;;;;2.33;1.83;;;32.40;76.90;;;;;;5069013;28;20791;-72
2021/06/19 10:55:20;;;;;;;6.10;2.37;;;32.50;78.90;;;;;;5070911;28;20510;-74
2021/06/19 10:57:49;;;;;;;5.00;1.90;;;32.70;76.50;;;;;;5068913;28;20461;-74
2021/06/19 11:00:37;;;;;;;2.77;1.90;;;32.90;77.90;;;;;;5068701;28;20505;-74
2021/06/19 11:03:06;;;;;;;1.73;1.70;;;33.00;75.90;;;;;;5069539;28;20576;-73
2021/06/19 11:05:57;;;;;;;2.07;1.73;;;33.00;74.00;;;;;;5070997;28;20867;-74
2021/06/19 11:08:25;;;;;;;2.20;1.93;;;33.00;71.80;;;;;;5068703;28;20456;-73
2021/06/19 11:10:56;;;;;;;2.43;1.73;;;33.10;73.50;;;;;;5070863;28;20459;-72
2021/06/19 11:13:46;;;;;;;1.73;1.63;;;33.30;73.40;;;;;;5068591;28;20496;-73
2021/06/19 11:16:58;;;;;;;3.10;2.37;;;33.50;73.00;;;;;;5068533;28;20950;-72
2021/06/19 11:19:44;;;;;;;1.73;1.70;;;33.50;72.40;;;;;;5008409;28;20626;-73
2021/06/19 11:22:34;;;;;;;1.70;1.50;;;33.50;71.10;;;;;;5006392;28;20466;-73
2021/06/19 11:25:36;;;;;;;2.53;1.87;;;33.50;69.90;;;;;;5053921;28;20506;-71
2021/06/19 11:28:04;;;;;;;2.57;2.07;;;33.40;69.50;;;;;;5068476;28;20463;-72
2021/06/19 11:30:43;;;;;;;2.20;1.60;;;33.40;70.20;;;;;;5070464;28;20461;-71
2021/06/19 11:33:32;;;;;;;3.83;2.10;;;33.50;72.60;;;;;;5068607;28;20460;-73
2021/06/19 11:36:27;;;;;;;3.07;1.90;;;33.40;69.50;;;;;;5070680;28;20467;-72
2021/06/19 11:38:56;;;;;;;1.83;1.70;;;33.50;70.30;;;;;;5070466;28;20507;-71
2021/06/19 11:41:25;;;;;;;2.70;2.00;;;33.50;71.00;;;;;;5067880;28;20563;-71
2021/06/19 11:43:53;;;;;;;2.37;1.83;;;33.50;70.00;;;;;;5070465;28;20460;-72
2021/06/19 11:46:21;;;;;;;2.13;1.77;;;33.60;70.20;;;;;;5067211;28;21030;-73
2021/06/19 11:48:54;;;;;;;2.60;1.70;;;33.70;70.40;;;;;;5069751;28;20453;-69
2021/06/19 11:51:24;;;;;;;2.43;1.90;;;33.70;70.50;;;;;;5067724;28;20481;-70
2021/06/19 11:53:52;;;;;;;2.33;1.80;;;33.70;71.10;;;;;;5069954;28;20491;-72
2021/06/19 11:56:24;;;;;;;2.57;1.80;;;33.80;69.10;;;;;;5067718;28;20588;-70
2021/06/19 11:58:54;;;;;;;2.10;1.90;;;34.00;70.20;;;;;;5069464;28;20538;-68
2021/06/19 12:01:23;;;;;;;3.17;1.97;;;34.20;68.90;;;;;;5067763;28;20567;-75
2021/06/19 12:03:52;;;;;;;3.47;1.93;;;34.40;70.10;;;;;;5070010;28;20455;-71
2021/06/19 12:06:30;;;;;;;2.50;2.10;;;34.60;68.90;;;;;;5067732;28;20457;-71
2021/06/19 12:08:58;;;;;;;2.30;1.70;;;34.60;67.80;;;;;;5069674;28;20492;-72
2021/06/19 12:11:28;;;;;;;1.77;1.73;;;34.40;69.40;;;;;;5067968;28;20456;-69
2021/06/19 12:13:56;;;;;;;2.17;1.80;;;34.40;70.60;;;;;;5073904;28;20488;-71
2021/06/19 12:16:30;;;;;;;2.80;2.00;;;34.50;69.90;;;;;;5071489;28;20526;-73
2021/06/19 12:18:59;;;;;;;2.37;1.90;;;34.60;68.70;;;;;;5073539;28;20524;-70
2021/06/19 12:21:37;;;;;;;2.20;2.07;;;34.50;68.50;;;;;;5071676;28;20484;-70
2021/06/19 12:24:20;;;;;;;2.40;1.80;;;34.50;68.90;;;;;;5073618;28;20525;-70
2021/06/19 12:26:58;;;;;;;2.70;1.73;;;34.50;67.10;;;;;;5071338;28;20484;-71
2021/06/19 12:29:30;;;;;;;2.57;1.90;;;34.60;68.00;;;;;;5071865;28;20458;-70
2021/06/19 12:31:58;;;;;;;2.77;2.03;;;34.70;66.50;;;;;;5071186;28;20881;-70
2021/06/19 12:34:28;;;;;;;2.63;2.20;;;34.70;64.90;;;;;;5073138;28;20871;-70
2021/06/19 12:36:56;;;;;;;3.63;2.17;;;34.60;68.70;;;;;;5071244;28;20959;-69
2021/06/19 12:39:23;;;;;;;2.53;1.80;;;34.50;69.20;;;;;;5072956;28;20537;-69
2021/06/19 12:41:51;;;;;;;2.40;2.10;;;34.60;69.00;;;;;;5070803;28;20929;-71
2021/06/19 12:44:19;;;;;;;2.57;2.00;;;34.80;70.80;;;;;;5069199;28;20484;-70
2021/06/19 12:46:48;;;;;;;2.47;1.73;;;34.80;70.20;;;;;;5068628;28;20481;-70
2021/06/19 12:49:14;;;;;;;2.17;1.90;;;34.80;68.70;;;;;;5070610;28;20534;-70
2021/06/19 12:51:43;;;;;;;2.27;1.77;;;34.90;69.80;;;;;;5068769;28;20522;-72
2021/06/19 12:54:19;;;;;;;3.07;2.03;;;35.00;68.30;;;;;;5070384;28;20561;-70
2021/06/19 12:56:54;;;;;;;3.10;2.47;;;35.00;67.40;;;;;;5068755;28;20533;-70
2021/06/19 12:59:22;;;;;;;2.30;1.90;;;35.10;68.90;;;;;;5065296;28;20510;-70